createdAt,value
2017-05-20T00:00:37.824Z,0
2017-05-20T00:01:48.108Z,0
2017-05-20T00:02:58.654Z,0
2017-05-20T00:04:08.942Z,0
2017-05-20T00:05:18.906Z,0
2017-05-20T00:06:28.883Z,0
2017-05-20T00:07:39.175Z,0
2017-05-20T00:08:49.710Z,0
2017-05-20T00:09:59.993Z,0
2017-05-20T00:11:10.286Z,0
2017-05-20T00:12:20.583Z,0
2017-05-20T00:13:30.558Z,0
2017-05-20T00:14:41.100Z,0
2017-05-20T00:15:51.377Z,0
2017-05-20T00:17:01.658Z,0
2017-05-20T00:18:11.955Z,0
2017-05-20T00:19:21.940Z,0
2017-05-20T00:20:32.484Z,0
2017-05-20T00:21:42.453Z,0
2017-05-20T00:22:52.734Z,0
2017-05-20T00:24:03.024Z,0
2017-05-20T00:25:13.009Z,0
2017-05-20T00:26:23.560Z,0
2017-05-20T00:27:33.849Z,0
2017-05-20T00:28:44.145Z,0
2017-05-20T00:29:54.448Z,0
2017-05-20T00:31:04.424Z,0
2017-05-20T00:32:14.653Z,0
2017-05-20T00:33:24.937Z,0
2017-05-20T00:34:34.919Z,0
2017-05-20T00:35:44.897Z,0
2017-05-20T00:36:55.185Z,0
2017-05-20T00:38:05.727Z,0
2017-05-20T00:39:16.071Z,0
2017-05-20T00:40:26.036Z,0
2017-05-20T00:41:36.323Z,0
2017-05-20T00:42:46.301Z,0
2017-05-20T00:43:56.833Z,0
2017-05-20T00:45:07.124Z,0
2017-05-20T00:46:17.104Z,0
2017-05-20T00:47:27.076Z,0
2017-05-20T00:48:37.049Z,0
2017-05-20T00:49:47.587Z,0
2017-05-20T00:50:57.872Z,0
2017-05-20T00:52:07.837Z,0
2017-05-20T00:53:18.127Z,0
2017-05-20T00:54:28.095Z,0
2017-05-20T00:55:38.636Z,0
2017-05-20T00:56:48.757Z,0
2017-05-20T00:57:59.041Z,0
2017-05-20T00:59:09.338Z,0
2017-05-20T01:00:19.305Z,0
2017-05-20T01:01:29.533Z,0
2017-05-20T01:02:39.826Z,0
2017-05-20T01:03:49.811Z,0
2017-05-20T01:04:59.797Z,0
2017-05-20T01:06:10.081Z,0
2017-05-20T01:07:20.319Z,0
2017-05-20T01:08:30.300Z,0
2017-05-20T01:09:39.960Z,0
2017-05-20T01:10:49.926Z,0
2017-05-20T01:12:00.203Z,0
2017-05-20T01:13:10.804Z,0
2017-05-20T01:14:21.085Z,0
2017-05-20T01:15:31.369Z,0
2017-05-20T01:16:41.346Z,0
2017-05-20T01:17:51.634Z,0
2017-05-20T01:19:01.870Z,0
2017-05-20T01:20:12.160Z,0
2017-05-20T01:21:22.144Z,0
2017-05-20T01:22:32.674Z,0
2017-05-20T01:23:42.954Z,0
2017-05-20T01:24:53.187Z,0
2017-05-20T01:26:03.478Z,0
2017-05-20T01:27:13.458Z,0
2017-05-20T01:28:23.746Z,0
2017-05-20T01:29:33.771Z,0
2017-05-20T01:30:43.994Z,0
2017-05-20T01:31:54.281Z,0
2017-05-20T01:33:04.567Z,0
2017-05-20T01:34:14.531Z,0
2017-05-20T01:35:24.506Z,0
2017-05-20T01:36:34.751Z,0
2017-05-20T01:37:45.062Z,0
2017-05-20T01:38:55.550Z,0
2017-05-20T01:40:05.846Z,0
2017-05-20T01:41:16.130Z,0
2017-05-20T01:42:26.675Z,0
2017-05-20T01:43:37.108Z,0
2017-05-20T01:44:46.774Z,0
2017-05-20T01:45:57.059Z,0
2017-05-20T01:47:07.337Z,0
2017-05-20T01:48:17.871Z,0
2017-05-20T01:49:28.169Z,0
2017-05-20T01:50:38.448Z,0
2017-05-20T01:51:48.724Z,0
2017-05-20T01:52:58.383Z,0
2017-05-20T01:54:08.918Z,0
2017-05-20T01:55:18.891Z,0
2017-05-20T01:56:29.182Z,0
2017-05-20T01:57:39.154Z,0
2017-05-20T01:58:49.464Z,0
2017-05-20T02:00:00.009Z,0
2017-05-20T02:01:10.311Z,0
2017-05-20T02:02:20.287Z,0
2017-05-20T02:03:30.265Z,0
2017-05-20T02:04:39.929Z,0
2017-05-20T02:05:50.465Z,0
2017-05-20T02:07:00.749Z,0
2017-05-20T02:08:11.128Z,0
2017-05-20T02:09:21.414Z,0
2017-05-20T02:10:31.383Z,0
2017-05-20T02:11:41.918Z,0
2017-05-20T02:12:52.222Z,0
2017-05-20T02:14:02.527Z,0
2017-05-20T02:15:12.499Z,0
2017-05-20T02:16:22.471Z,0
2017-05-20T02:17:32.997Z,0
2017-05-20T02:18:43.285Z,0
2017-05-20T02:19:53.618Z,0
2017-05-20T02:21:03.960Z,0
2017-05-20T02:22:14.238Z,0
2017-05-20T02:23:24.767Z,0
2017-05-20T02:24:34.746Z,0
2017-05-20T02:25:44.086Z,0
2017-05-20T02:26:54.369Z,0
2017-05-20T02:28:04.346Z,0
2017-05-20T02:29:14.619Z,0
2017-05-20T02:30:24.896Z,0
2017-05-20T02:31:34.873Z,0
2017-05-20T02:32:45.156Z,0
2017-05-20T02:33:55.446Z,0
2017-05-20T02:35:05.715Z,0
2017-05-20T02:36:15.692Z,0
2017-05-20T02:37:25.974Z,0
2017-05-20T02:38:35.961Z,0
2017-05-20T02:39:46.233Z,0
2017-05-20T02:40:56.761Z,0
2017-05-20T02:42:06.431Z,0
2017-05-20T02:43:16.718Z,0
2017-05-20T02:44:26.695Z,0
2017-05-20T02:45:36.974Z,0
2017-05-20T02:46:47.505Z,0
2017-05-20T02:47:57.791Z,0
2017-05-20T02:49:07.454Z,0
2017-05-20T02:50:17.736Z,0
2017-05-20T02:51:27.081Z,0
2017-05-20T02:52:37.310Z,0
2017-05-20T02:53:47.596Z,0
2017-05-20T02:54:57.877Z,0
2017-05-20T02:56:07.852Z,0
2017-05-20T02:57:18.130Z,0
2017-05-20T02:58:28.355Z,0
2017-05-20T02:59:38.639Z,0
2017-05-20T03:00:48.921Z,0
2017-05-20T03:01:59.203Z,0
2017-05-20T03:03:09.171Z,0
2017-05-20T03:04:19.707Z,0
2017-05-20T03:05:29.994Z,0
2017-05-20T03:06:40.276Z,0
2017-05-20T03:07:50.568Z,0
2017-05-20T03:09:00.845Z,0
2017-05-20T03:10:11.072Z,0
2017-05-20T03:11:21.051Z,0
2017-05-20T03:12:31.346Z,0
2017-05-20T03:13:41.314Z,0
2017-05-20T03:14:51.599Z,0
2017-05-20T03:16:02.138Z,0
2017-05-20T03:17:12.417Z,0
2017-05-20T03:18:22.390Z,0
2017-05-20T03:19:32.255Z,0
2017-05-20T03:20:41.975Z,0
2017-05-20T03:21:52.206Z,0
2017-05-20T03:23:02.187Z,0
2017-05-20T03:24:12.165Z,0
2017-05-20T03:25:22.448Z,0
2017-05-20T03:26:32.732Z,0
2017-05-20T03:27:43.269Z,0
2017-05-20T03:28:53.252Z,0
2017-05-20T03:30:03.531Z,0
2017-05-20T03:31:13.818Z,0
2017-05-20T03:32:23.797Z,0
2017-05-20T03:33:34.343Z,0
2017-05-20T03:34:44.650Z,0
2017-05-20T03:35:54.929Z,0
2017-05-20T03:37:04.584Z,0
2017-05-20T03:38:14.563Z,0
2017-05-20T03:39:25.115Z,0
2017-05-20T03:40:35.399Z,0
2017-05-20T03:41:45.681Z,0
2017-05-20T03:42:55.966Z,0
2017-05-20T03:44:06.250Z,0
2017-05-20T03:45:16.780Z,0
2017-05-20T03:46:26.746Z,0
2017-05-20T03:47:37.031Z,0
2017-05-20T03:48:47.021Z,0
2017-05-20T03:49:57.311Z,0
2017-05-20T03:51:07.529Z,0
2017-05-20T03:52:17.811Z,0
2017-05-20T03:53:28.101Z,0
2017-05-20T03:54:38.384Z,0
2017-05-20T03:55:48.670Z,0
2017-05-20T03:56:59.261Z,0
2017-05-20T03:58:09.545Z,0
2017-05-20T03:59:19.848Z,0
2017-05-20T04:00:30.144Z,0
2017-05-20T04:01:40.112Z,0
2017-05-20T04:02:50.650Z,4
2017-05-20T04:04:00.616Z,4
2017-05-20T04:05:10.282Z,4
2017-05-20T04:06:20.568Z,4
2017-05-20T04:07:30.232Z,4
2017-05-20T04:08:40.770Z,4
2017-05-20T04:09:50.428Z,4
2017-05-20T04:11:00.460Z,0
2017-05-20T04:12:10.746Z,0
2017-05-20T04:13:21.028Z,0
2017-05-20T04:14:31.252Z,0
2017-05-20T04:15:41.531Z,0
2017-05-20T04:16:51.814Z,4
2017-05-20T04:18:01.793Z,0
2017-05-20T04:19:12.068Z,0
2017-05-20T04:20:22.283Z,4
2017-05-20T04:21:31.967Z,4
2017-05-20T04:22:42.266Z,0
2017-05-20T04:23:52.546Z,0
2017-05-20T04:25:02.842Z,0
2017-05-20T04:26:13.380Z,0
2017-05-20T04:27:23.356Z,0
2017-05-20T04:28:33.647Z,0
2017-05-20T04:29:43.652Z,0
2017-05-20T04:30:53.967Z,0
2017-05-20T04:32:04.213Z,4
2017-05-20T04:33:14.499Z,4
2017-05-20T04:34:24.808Z,4
2017-05-20T04:35:35.107Z,0
2017-05-20T04:36:45.386Z,4
2017-05-20T04:37:55.920Z,4
2017-05-20T04:39:06.224Z,0
2017-05-20T04:40:16.501Z,4
2017-05-20T04:41:26.165Z,0
2017-05-20T04:42:36.134Z,0
2017-05-20T04:43:46.047Z,0
2017-05-20T04:44:56.012Z,4
2017-05-20T04:46:06.313Z,4
2017-05-20T04:47:16.591Z,4
2017-05-20T04:48:26.873Z,4
2017-05-20T04:49:37.429Z,4
2017-05-20T04:50:47.402Z,4
2017-05-20T04:51:57.689Z,4
2017-05-20T04:53:07.654Z,8
2017-05-20T04:54:17.955Z,8
2017-05-20T04:55:28.183Z,8
2017-05-20T04:56:38.147Z,8
2017-05-20T04:57:48.442Z,8
2017-05-20T04:58:58.414Z,8
2017-05-20T05:00:08.398Z,12
2017-05-20T05:01:18.639Z,12
2017-05-20T05:02:28.923Z,12
2017-05-20T05:03:39.210Z,12
2017-05-20T05:04:48.877Z,12
2017-05-20T05:05:58.879Z,12
2017-05-20T05:07:09.100Z,12
2017-05-20T05:08:18.760Z,8
2017-05-20T05:09:28.738Z,8
2017-05-20T05:10:38.398Z,8
2017-05-20T05:11:48.680Z,8
2017-05-20T05:12:58.908Z,8
2017-05-20T05:14:09.196Z,8
2017-05-20T05:15:19.489Z,12
2017-05-20T05:16:29.777Z,16
2017-05-20T05:17:40.049Z,12
2017-05-20T05:18:49.969Z,16
2017-05-20T05:19:59.955Z,16
2017-05-20T05:21:10.249Z,16
2017-05-20T05:22:20.220Z,16
2017-05-20T05:23:30.501Z,16
2017-05-20T05:24:41.027Z,16
2017-05-20T05:25:51.324Z,16
2017-05-20T05:27:01.289Z,16
2017-05-20T05:28:11.567Z,20
2017-05-20T05:29:21.848Z,16
2017-05-20T05:30:32.080Z,16
2017-05-20T05:31:42.366Z,16
2017-05-20T05:32:52.642Z,16
2017-05-20T05:34:02.927Z,12
2017-05-20T05:35:12.897Z,12
2017-05-20T05:36:23.425Z,12
2017-05-20T05:37:33.700Z,12
2017-05-20T05:38:43.671Z,16
2017-05-20T05:39:53.971Z,16
2017-05-20T05:41:03.939Z,16
2017-05-20T05:42:14.171Z,16
2017-05-20T05:43:24.509Z,16
2017-05-20T05:44:34.812Z,20
2017-05-20T05:45:45.097Z,20
2017-05-20T05:46:55.072Z,20
2017-05-20T05:48:05.293Z,20
2017-05-20T05:49:15.629Z,20
2017-05-20T05:50:25.602Z,20
2017-05-20T05:51:35.261Z,20
2017-05-20T05:52:45.243Z,24
2017-05-20T05:53:55.775Z,28
2017-05-20T05:55:06.067Z,32
2017-05-20T05:56:16.345Z,36
2017-05-20T05:57:26.927Z,36
2017-05-20T05:58:36.907Z,32
2017-05-20T05:59:47.448Z,24
2017-05-20T06:00:57.737Z,24
2017-05-20T06:02:08.033Z,20
2017-05-20T06:03:18.009Z,20
2017-05-20T06:04:28.305Z,20
2017-05-20T06:05:38.843Z,20
2017-05-20T06:06:49.134Z,20
2017-05-20T06:07:59.124Z,20
2017-05-20T06:09:09.404Z,24
2017-05-20T06:10:19.684Z,20
2017-05-20T06:11:30.223Z,20
2017-05-20T06:12:40.194Z,24
2017-05-20T06:13:49.856Z,24
2017-05-20T06:15:00.143Z,24
2017-05-20T06:16:10.117Z,28
2017-05-20T06:17:20.044Z,36
2017-05-20T06:18:30.340Z,32
2017-05-20T06:19:40.336Z,32
2017-05-20T06:20:50.302Z,36
2017-05-20T06:22:00.578Z,44
2017-05-20T06:23:10.800Z,44
2017-05-20T06:24:20.769Z,44
2017-05-20T06:25:31.050Z,40
2017-05-20T06:26:41.330Z,44
2017-05-20T06:27:51.617Z,48
2017-05-20T06:29:01.849Z,48
2017-05-20T06:30:11.824Z,48
2017-05-20T06:31:22.103Z,52
2017-05-20T06:32:32.079Z,48
2017-05-20T06:33:42.367Z,56
2017-05-20T06:34:52.597Z,96
2017-05-20T06:36:02.566Z,52
2017-05-20T06:37:12.849Z,44
2017-05-20T06:38:23.147Z,48
2017-05-20T06:39:33.430Z,44
2017-05-20T06:40:43.958Z,40
2017-05-20T06:41:54.254Z,44
2017-05-20T06:43:04.223Z,44
2017-05-20T06:44:14.200Z,44
2017-05-20T06:45:24.224Z,52
2017-05-20T06:46:34.712Z,40
2017-05-20T06:47:45.006Z,36
2017-05-20T06:48:55.307Z,36
2017-05-20T06:50:05.592Z,32
2017-05-20T06:51:15.557Z,32
2017-05-20T06:52:25.469Z,32
2017-05-20T06:53:35.756Z,32
2017-05-20T06:54:46.046Z,32
2017-05-20T06:55:56.012Z,32
2017-05-20T06:57:05.996Z,32
2017-05-20T06:58:15.911Z,36
2017-05-20T06:59:26.193Z,36
2017-05-20T07:00:36.482Z,36
2017-05-20T07:01:46.768Z,32
2017-05-20T07:02:57.067Z,36
2017-05-20T07:04:07.595Z,36
2017-05-20T07:05:17.597Z,44
2017-05-20T07:06:27.886Z,36
2017-05-20T07:07:37.859Z,40
2017-05-20T07:08:48.166Z,40
2017-05-20T07:09:58.718Z,40
2017-05-20T07:11:08.692Z,36
2017-05-20T07:12:18.971Z,36
2017-05-20T07:13:29.282Z,32
2017-05-20T07:14:39.266Z,32
2017-05-20T07:15:49.817Z,32
2017-05-20T07:16:59.789Z,36
2017-05-20T07:18:10.172Z,40
2017-05-20T07:19:19.840Z,44
2017-05-20T07:20:30.132Z,48
2017-05-20T07:21:40.371Z,48
2017-05-20T07:22:50.801Z,48
2017-05-20T07:24:01.090Z,44
2017-05-20T07:25:11.374Z,44
2017-05-20T07:26:21.654Z,40
2017-05-20T07:27:32.187Z,40
2017-05-20T07:28:42.488Z,40
2017-05-20T07:29:52.463Z,48
2017-05-20T07:31:02.746Z,48
2017-05-20T07:32:13.036Z,48
2017-05-20T07:33:23.617Z,52
2017-05-20T07:34:33.919Z,52
2017-05-20T07:35:44.213Z,52
2017-05-20T07:36:54.498Z,44
2017-05-20T07:38:04.773Z,44
2017-05-20T07:39:15.314Z,44
2017-05-20T07:40:25.294Z,40
2017-05-20T07:41:35.571Z,48
2017-05-20T07:42:45.547Z,48
2017-05-20T07:43:55.525Z,48
2017-05-20T07:45:05.773Z,64
2017-05-20T07:46:16.056Z,56
2017-05-20T07:47:26.347Z,52
2017-05-20T07:48:36.632Z,48
2017-05-20T07:49:46.922Z,56
2017-05-20T07:50:57.151Z,48
2017-05-20T07:52:07.192Z,48
2017-05-20T07:53:17.163Z,48
2017-05-20T07:54:27.133Z,48
2017-05-20T07:55:37.162Z,44
2017-05-20T07:56:47.702Z,48
2017-05-20T07:57:57.982Z,96
2017-05-20T07:59:08.265Z,96
2017-05-20T08:00:18.573Z,84
2017-05-20T08:01:28.871Z,96
2017-05-20T08:02:39.411Z,96
2017-05-20T08:03:49.698Z,100
2017-05-20T08:05:00.049Z,88
2017-05-20T08:06:10.342Z,100
2017-05-20T08:07:20.640Z,100
2017-05-20T08:08:30.876Z,92
2017-05-20T08:09:41.167Z,96
2017-05-20T08:10:51.455Z,96
2017-05-20T08:12:01.743Z,96
2017-05-20T08:13:12.024Z,96
2017-05-20T08:14:22.563Z,96
2017-05-20T08:15:32.553Z,100
2017-05-20T08:16:42.528Z,96
2017-05-20T08:17:52.831Z,100
2017-05-20T08:19:02.794Z,100
2017-05-20T08:20:13.013Z,100
2017-05-20T08:21:23.003Z,100
2017-05-20T08:22:32.971Z,100
2017-05-20T08:23:42.964Z,100
2017-05-20T08:24:52.935Z,100
2017-05-20T08:26:03.471Z,92
2017-05-20T08:27:13.459Z,76
2017-05-20T08:28:23.454Z,96
2017-05-20T08:29:33.430Z,104
2017-05-20T08:30:43.707Z,60
2017-05-20T08:31:54.252Z,64
2017-05-20T08:33:04.250Z,88
2017-05-20T08:34:14.545Z,60
2017-05-20T08:35:24.831Z,64
2017-05-20T08:36:35.118Z,64
2017-05-20T08:37:45.491Z,76
2017-05-20T08:38:55.783Z,60
2017-05-20T08:40:05.763Z,80
2017-05-20T08:41:15.747Z,64
2017-05-20T08:42:26.044Z,108
2017-05-20T08:43:36.580Z,104
2017-05-20T08:44:46.870Z,108
2017-05-20T08:45:56.839Z,108
2017-05-20T08:47:07.120Z,108
2017-05-20T08:48:17.400Z,108
2017-05-20T08:49:27.953Z,84
2017-05-20T08:50:37.930Z,80
2017-05-20T08:51:47.899Z,68
2017-05-20T08:52:58.233Z,64
2017-05-20T08:54:08.204Z,76
2017-05-20T08:55:18.745Z,60
2017-05-20T08:56:28.405Z,108
2017-05-20T08:57:38.705Z,108
2017-05-20T08:58:48.681Z,92
2017-05-20T08:59:58.653Z,64
2017-05-20T09:01:08.878Z,68
2017-05-20T09:02:19.173Z,60
2017-05-20T09:03:29.455Z,60
2017-05-20T09:04:39.759Z,104
2017-05-20T09:05:49.728Z,108
2017-05-20T09:06:59.962Z,80
2017-05-20T09:08:10.245Z,72
2017-05-20T09:09:20.539Z,76
2017-05-20T09:10:30.516Z,72
2017-05-20T09:11:40.808Z,104
2017-05-20T09:12:51.352Z,100
2017-05-20T09:14:01.639Z,100
2017-05-20T09:15:11.917Z,88
2017-05-20T09:16:22.199Z,64
2017-05-20T09:17:32.554Z,64
2017-05-20T09:18:43.144Z,60
2017-05-20T09:19:53.425Z,64
2017-05-20T09:21:03.400Z,64
2017-05-20T09:22:13.691Z,64
2017-05-20T09:23:23.981Z,84
2017-05-20T09:24:34.514Z,72
2017-05-20T09:25:44.805Z,68
2017-05-20T09:26:55.083Z,112
2017-05-20T09:28:04.788Z,108
2017-05-20T09:29:15.075Z,92
2017-05-20T09:30:25.610Z,68
2017-05-20T09:31:35.893Z,100
2017-05-20T09:32:46.184Z,72
2017-05-20T09:33:56.491Z,64
2017-05-20T09:35:06.487Z,112
2017-05-20T09:36:16.701Z,72
2017-05-20T09:37:26.989Z,72
2017-05-20T09:38:37.284Z,68
2017-05-20T09:39:47.269Z,64
2017-05-20T09:40:57.237Z,68
2017-05-20T09:42:07.777Z,112
2017-05-20T09:43:18.083Z,104
2017-05-20T09:44:28.076Z,100
2017-05-20T09:45:38.052Z,88
2017-05-20T09:46:48.352Z,76
2017-05-20T09:47:58.596Z,84
2017-05-20T09:49:08.881Z,88
2017-05-20T09:50:19.172Z,92
2017-05-20T09:51:29.640Z,84
2017-05-20T09:52:39.625Z,84
2017-05-20T09:53:50.164Z,72
2017-05-20T09:54:59.846Z,72
2017-05-20T09:56:10.287Z,72
2017-05-20T09:57:20.584Z,68
2017-05-20T09:58:30.887Z,76
2017-05-20T09:59:41.124Z,80
2017-05-20T10:00:50.476Z,80
2017-05-20T10:02:00.769Z,80
2017-05-20T10:03:11.069Z,76
2017-05-20T10:04:21.361Z,76
2017-05-20T10:05:31.594Z,76
2017-05-20T10:06:41.888Z,84
2017-05-20T10:07:52.169Z,92
2017-05-20T10:09:02.161Z,84
2017-05-20T10:10:12.474Z,80
2017-05-20T10:11:23.025Z,96
2017-05-20T10:12:32.999Z,100
2017-05-20T10:13:42.981Z,96
2017-05-20T10:14:53.270Z,92
2017-05-20T10:16:03.254Z,96
2017-05-20T10:17:13.484Z,88
2017-05-20T10:18:23.765Z,84
2017-05-20T10:19:34.121Z,100
2017-05-20T10:20:44.429Z,96
2017-05-20T10:21:54.724Z,96
2017-05-20T10:23:04.655Z,96
2017-05-20T10:24:14.322Z,96
2017-05-20T10:25:24.296Z,96
2017-05-20T10:26:34.608Z,76
2017-05-20T10:27:44.890Z,68
2017-05-20T10:28:55.423Z,68
2017-05-20T10:30:05.713Z,72
2017-05-20T10:31:15.693Z,76
2017-05-20T10:32:25.355Z,88
2017-05-20T10:33:35.635Z,84
2017-05-20T10:34:45.866Z,92
2017-05-20T10:35:56.140Z,88
2017-05-20T10:37:06.116Z,92
2017-05-20T10:38:16.100Z,76
2017-05-20T10:39:25.761Z,80
2017-05-20T10:40:36.042Z,76
2017-05-20T10:41:46.330Z,72
2017-05-20T10:42:56.307Z,68
2017-05-20T10:44:06.603Z,68
2017-05-20T10:45:16.885Z,68
2017-05-20T10:46:27.443Z,80
2017-05-20T10:47:37.726Z,88
2017-05-20T10:48:48.041Z,88
2017-05-20T10:49:58.340Z,88
2017-05-20T10:51:08.639Z,88
2017-05-20T10:52:19.179Z,72
2017-05-20T10:53:29.666Z,64
2017-05-20T10:54:39.972Z,64
2017-05-20T10:55:50.252Z,60
2017-05-20T10:57:00.541Z,60
2017-05-20T10:58:10.783Z,60
2017-05-20T10:59:21.075Z,60
2017-05-20T11:00:31.042Z,60
2017-05-20T11:01:41.327Z,64
2017-05-20T11:02:51.638Z,68
2017-05-20T11:04:01.237Z,104
2017-05-20T11:05:11.526Z,80
2017-05-20T11:06:21.805Z,72
2017-05-20T11:07:31.787Z,56
2017-05-20T11:08:41.773Z,60
2017-05-20T11:09:51.704Z,64
2017-05-20T11:11:01.997Z,68
2017-05-20T11:12:12.297Z,60
2017-05-20T11:13:22.586Z,60
2017-05-20T11:14:32.576Z,60
2017-05-20T11:15:43.360Z,64
2017-05-20T11:16:53.653Z,60
2017-05-20T11:18:03.638Z,64
2017-05-20T11:19:13.923Z,68
2017-05-20T11:20:23.914Z,72
2017-05-20T11:21:34.146Z,76
2017-05-20T11:22:44.443Z,76
2017-05-20T11:23:54.976Z,72
2017-05-20T11:25:05.271Z,80
2017-05-20T11:26:15.254Z,88
2017-05-20T11:27:25.789Z,64
2017-05-20T11:28:36.075Z,100
2017-05-20T11:29:46.059Z,60
2017-05-20T11:30:56.358Z,60
2017-05-20T11:32:06.665Z,56
2017-05-20T11:33:16.892Z,56
2017-05-20T11:34:27.181Z,56
2017-05-20T11:35:36.845Z,60
2017-05-20T11:36:47.141Z,60
2017-05-20T11:37:57.436Z,64
2017-05-20T11:39:08.034Z,60
2017-05-20T11:40:18.325Z,56
2017-05-20T11:41:28.305Z,52
2017-05-20T11:42:38.597Z,52
2017-05-20T11:43:48.879Z,48
2017-05-20T11:44:59.118Z,48
2017-05-20T11:46:09.397Z,48
2017-05-20T11:47:19.382Z,52
2017-05-20T11:48:29.689Z,52
2017-05-20T11:49:39.974Z,52
2017-05-20T11:50:50.520Z,52
2017-05-20T11:52:00.502Z,56
2017-05-20T11:53:10.484Z,56
2017-05-20T11:54:20.782Z,56
2017-05-20T11:55:30.755Z,56
2017-05-20T11:56:40.995Z,52
2017-05-20T11:57:50.665Z,56
2017-05-20T11:59:00.639Z,60
2017-05-20T12:00:10.943Z,60
2017-05-20T12:01:20.930Z,60
2017-05-20T12:02:31.467Z,64
2017-05-20T12:03:41.762Z,76
2017-05-20T12:04:51.758Z,88
2017-05-20T12:06:02.062Z,68
2017-05-20T12:07:12.030Z,68
2017-05-20T12:08:22.270Z,64
2017-05-20T12:09:31.640Z,60
2017-05-20T12:10:41.934Z,52
2017-05-20T12:11:52.226Z,48
2017-05-20T12:13:01.896Z,48
2017-05-20T12:14:12.431Z,48
2017-05-20T12:15:22.725Z,48
2017-05-20T12:16:33.023Z,44
2017-05-20T12:17:43.371Z,48
2017-05-20T12:18:53.365Z,48
2017-05-20T12:20:03.895Z,48
2017-05-20T12:21:14.175Z,48
2017-05-20T12:22:24.445Z,48
2017-05-20T12:23:34.741Z,52
2017-05-20T12:24:44.715Z,48
2017-05-20T12:25:55.248Z,48
2017-05-20T12:27:05.530Z,48
2017-05-20T12:28:15.840Z,44
2017-05-20T12:29:25.836Z,44
2017-05-20T12:30:35.824Z,44
2017-05-20T12:31:46.409Z,44
2017-05-20T12:32:55.755Z,48
2017-05-20T12:34:06.048Z,52
2017-05-20T12:35:16.338Z,52
2017-05-20T12:36:26.637Z,56
2017-05-20T12:37:37.175Z,56
2017-05-20T12:38:47.460Z,56
2017-05-20T12:39:57.543Z,52
2017-05-20T12:41:07.516Z,48
2017-05-20T12:42:17.809Z,44
2017-05-20T12:43:28.041Z,44
2017-05-20T12:44:38.325Z,44
2017-05-20T12:45:48.657Z,44
2017-05-20T12:46:58.955Z,44
2017-05-20T12:48:09.251Z,44
2017-05-20T12:49:19.795Z,48
2017-05-20T12:50:29.825Z,44
2017-05-20T12:51:39.797Z,44
2017-05-20T12:52:50.095Z,44
2017-05-20T12:54:00.072Z,48
2017-05-20T12:55:10.631Z,48
2017-05-20T12:56:20.607Z,48
2017-05-20T12:57:30.910Z,48
2017-05-20T12:58:41.200Z,56
2017-05-20T12:59:51.172Z,68
2017-05-20T13:01:01.704Z,52
2017-05-20T13:02:11.995Z,52
2017-05-20T13:03:22.281Z,60
2017-05-20T13:04:32.253Z,48
2017-05-20T13:05:42.228Z,48
2017-05-20T13:06:52.761Z,44
2017-05-20T13:08:02.732Z,40
2017-05-20T13:09:13.027Z,40
2017-05-20T13:10:23.000Z,40
2017-05-20T13:11:33.285Z,36
2017-05-20T13:12:43.824Z,40
2017-05-20T13:13:53.804Z,40
2017-05-20T13:15:03.795Z,40
2017-05-20T13:16:13.454Z,44
2017-05-20T13:17:23.123Z,44
2017-05-20T13:18:34.116Z,44
2017-05-20T13:19:44.407Z,44
2017-05-20T13:20:54.690Z,48
2017-05-20T13:22:04.979Z,44
2017-05-20T13:23:15.270Z,44
2017-05-20T13:24:25.886Z,44
2017-05-20T13:25:36.162Z,44
2017-05-20T13:26:46.132Z,44
2017-05-20T13:27:56.111Z,44
2017-05-20T13:29:06.399Z,48
2017-05-20T13:30:16.927Z,48
2017-05-20T13:31:27.198Z,48
2017-05-20T13:32:37.170Z,56
2017-05-20T13:33:47.472Z,56
2017-05-20T13:34:57.756Z,56
2017-05-20T13:36:08.003Z,56
2017-05-20T13:37:18.296Z,52
2017-05-20T13:38:28.579Z,52
2017-05-20T13:39:38.861Z,48
2017-05-20T13:40:48.829Z,52
2017-05-20T13:41:59.055Z,48
2017-05-20T13:43:09.028Z,52
2017-05-20T13:44:19.337Z,52
2017-05-20T13:45:29.328Z,48
2017-05-20T13:46:39.296Z,48
2017-05-20T13:47:49.831Z,44
2017-05-20T13:49:00.125Z,48
2017-05-20T13:50:10.472Z,44
2017-05-20T13:51:20.765Z,44
2017-05-20T13:52:31.215Z,52
2017-05-20T13:53:41.749Z,52
2017-05-20T13:54:52.081Z,48
2017-05-20T13:56:02.069Z,52
2017-05-20T13:57:12.352Z,52
2017-05-20T13:58:22.337Z,60
2017-05-20T13:59:32.881Z,52
2017-05-20T14:00:42.859Z,52
2017-05-20T14:01:53.140Z,52
2017-05-20T14:03:03.130Z,60
2017-05-20T14:04:13.424Z,68
2017-05-20T14:05:23.971Z,64
2017-05-20T14:06:34.251Z,52
2017-05-20T14:07:44.563Z,52
2017-05-20T14:08:54.850Z,52
2017-05-20T14:10:05.127Z,44
2017-05-20T14:11:15.833Z,40
2017-05-20T14:12:25.827Z,40
2017-05-20T14:13:36.113Z,40
2017-05-20T14:14:46.405Z,40
2017-05-20T14:15:56.698Z,36
2017-05-20T14:17:07.266Z,36
2017-05-20T14:18:17.246Z,36
2017-05-20T14:19:27.249Z,40
2017-05-20T14:20:37.533Z,40
2017-05-20T14:21:47.834Z,40
2017-05-20T14:22:58.258Z,40
2017-05-20T14:24:08.550Z,40
2017-05-20T14:25:18.219Z,36
2017-05-20T14:26:28.569Z,36
2017-05-20T14:27:38.871Z,36
2017-05-20T14:28:49.125Z,36
2017-05-20T14:29:59.101Z,36
2017-05-20T14:31:09.408Z,36
2017-05-20T14:32:19.386Z,36
2017-05-20T14:33:29.682Z,36
2017-05-20T14:34:40.240Z,36
2017-05-20T14:35:50.531Z,36
2017-05-20T14:37:00.511Z,36
2017-05-20T14:38:10.491Z,44
2017-05-20T14:39:20.788Z,40
2017-05-20T14:40:31.373Z,40
2017-05-20T14:41:41.351Z,44
2017-05-20T14:42:51.332Z,44
2017-05-20T14:44:01.634Z,48
2017-05-20T14:45:11.926Z,52
2017-05-20T14:46:22.460Z,52
2017-05-20T14:47:32.444Z,52
2017-05-20T14:48:42.739Z,48
2017-05-20T14:49:53.047Z,48
2017-05-20T14:51:03.335Z,48
2017-05-20T14:52:13.888Z,48
2017-05-20T14:53:24.178Z,44
2017-05-20T14:54:34.163Z,40
2017-05-20T14:55:44.462Z,32
2017-05-20T14:56:54.749Z,32
2017-05-20T14:58:05.355Z,32
2017-05-20T14:59:15.657Z,32
2017-05-20T15:00:25.643Z,32
2017-05-20T15:01:35.923Z,32
2017-05-20T15:02:46.206Z,36
2017-05-20T15:03:56.438Z,36
2017-05-20T15:05:06.475Z,36
2017-05-20T15:06:16.451Z,40
2017-05-20T15:07:26.421Z,40
2017-05-20T15:08:36.713Z,36
2017-05-20T15:09:47.246Z,36
2017-05-20T15:10:57.223Z,36
2017-05-20T15:12:07.511Z,36
2017-05-20T15:13:17.803Z,32
2017-05-20T15:14:27.478Z,36
2017-05-20T15:15:37.410Z,36
2017-05-20T15:16:47.963Z,36
2017-05-20T15:17:57.935Z,40
2017-05-20T15:19:07.904Z,44
2017-05-20T15:20:17.900Z,44
2017-05-20T15:21:28.441Z,40
2017-05-20T15:22:38.721Z,52
2017-05-20T15:23:49.016Z,44
2017-05-20T15:24:59.370Z,40
2017-05-20T15:26:09.364Z,40
2017-05-20T15:27:19.914Z,40
2017-05-20T15:28:29.887Z,40
2017-05-20T15:29:40.184Z,40
2017-05-20T15:30:50.475Z,40
2017-05-20T15:32:00.791Z,36
2017-05-20T15:33:10.712Z,36
2017-05-20T15:34:21.004Z,40
2017-05-20T15:35:31.297Z,36
2017-05-20T15:36:41.578Z,36
2017-05-20T15:37:51.867Z,36
2017-05-20T15:39:01.781Z,36
2017-05-20T15:40:12.077Z,32
2017-05-20T15:41:22.049Z,36
2017-05-20T15:42:32.452Z,36
2017-05-20T15:43:42.737Z,40
2017-05-20T15:44:53.280Z,36
2017-05-20T15:46:03.578Z,36
2017-05-20T15:47:13.872Z,36
2017-05-20T15:48:23.237Z,40
2017-05-20T15:49:33.218Z,40
2017-05-20T15:50:43.760Z,40
2017-05-20T15:51:54.059Z,40
2017-05-20T15:53:04.355Z,40
2017-05-20T15:54:14.635Z,40
2017-05-20T15:55:24.932Z,40
2017-05-20T15:56:35.464Z,40
2017-05-20T15:57:45.448Z,40
2017-05-20T15:58:55.798Z,36
2017-05-20T16:00:05.780Z,32
2017-05-20T16:01:16.063Z,32
2017-05-20T16:02:26.593Z,28
2017-05-20T16:03:36.571Z,32
2017-05-20T16:04:46.866Z,28
2017-05-20T16:05:57.150Z,32
2017-05-20T16:07:07.430Z,32
2017-05-20T16:08:17.967Z,28
2017-05-20T16:09:27.953Z,28
2017-05-20T16:10:38.244Z,28
2017-05-20T16:11:48.225Z,28
2017-05-20T16:12:58.522Z,32
2017-05-20T16:14:08.751Z,32
2017-05-20T16:15:19.072Z,32
2017-05-20T16:16:29.363Z,32
2017-05-20T16:17:39.040Z,32
2017-05-20T16:18:49.327Z,32
2017-05-20T16:19:59.872Z,32
2017-05-20T16:21:09.539Z,32
2017-05-20T16:22:19.825Z,32
2017-05-20T16:23:29.479Z,32
2017-05-20T16:24:39.767Z,32
2017-05-20T16:25:50.305Z,32
2017-05-20T16:27:00.277Z,28
2017-05-20T16:28:10.246Z,32
2017-05-20T16:29:19.913Z,28
2017-05-20T16:30:29.900Z,32
2017-05-20T16:31:40.552Z,28
2017-05-20T16:32:50.843Z,28
2017-05-20T16:34:01.152Z,28
2017-05-20T16:35:11.429Z,28
2017-05-20T16:36:21.419Z,28
2017-05-20T16:37:31.953Z,28
2017-05-20T16:38:41.334Z,28
2017-05-20T16:39:51.637Z,28
2017-05-20T16:41:01.806Z,32
2017-05-20T16:42:11.468Z,32
2017-05-20T16:43:22.010Z,32
2017-05-20T16:44:32.308Z,32
2017-05-20T16:45:42.277Z,28
2017-05-20T16:46:52.259Z,28
2017-05-20T16:48:02.233Z,28
2017-05-20T16:49:12.774Z,28
2017-05-20T16:50:22.761Z,24